createdAt,value
2023-06-25T00:00:39.603Z,9.46
2023-06-25T00:03:06.450Z,9.93
2023-06-25T00:05:33.229Z,7.59
2023-06-25T00:07:59.884Z,7.32
2023-06-25T00:10:26.480Z,7.42
2023-06-25T00:12:53.073Z,7.07
2023-06-25T00:15:19.669Z,6.94
2023-06-25T00:17:46.334Z,6.21
2023-06-25T00:20:13.005Z,6.25
2023-06-25T00:22:39.673Z,5.99
2023-06-25T00:25:06.818Z,6.44
2023-06-25T00:27:33.466Z,6.05
2023-06-25T00:30:00.173Z,6.14
2023-06-25T00:32:26.951Z,5.91
2023-06-25T00:34:53.626Z,6.17
2023-06-25T00:37:20.262Z,5.79
2023-06-25T00:39:47.696Z,6.17
2023-06-25T00:42:14.579Z,6.11
2023-06-25T00:44:41.266Z,5.94
2023-06-25T00:47:13.890Z,5.96
2023-06-25T00:49:41.210Z,6.18
2023-06-25T00:52:08.056Z,5.73
2023-06-25T00:54:34.700Z,6.33
2023-06-25T00:57:01.347Z,6.20
2023-06-25T00:59:28.134Z,6.55
2023-06-25T01:01:56.705Z,5.99
2023-06-25T01:04:25.552Z,5.92
2023-06-25T01:06:52.463Z,5.81
2023-06-25T01:09:19.401Z,6.23
2023-06-25T01:11:59.816Z,6.14
2023-06-25T01:14:26.434Z,6.09
2023-06-25T01:16:53.038Z,5.74
2023-06-25T01:19:19.789Z,6.31
2023-06-25T01:21:47.016Z,6.27
2023-06-25T01:24:13.817Z,6.18
2023-06-25T01:26:40.414Z,6.26
2023-06-25T01:29:06.997Z,6.12
2023-06-25T01:31:33.657Z,6.15
2023-06-25T01:34:00.283Z,6.27
2023-06-25T01:36:26.921Z,6.24
2023-06-25T01:38:53.568Z,6.41
2023-06-25T01:41:20.177Z,14.36
2023-06-25T01:43:46.766Z,16.43
2023-06-25T01:46:13.464Z,17.72
2023-06-25T01:48:40.141Z,7.04
2023-06-25T01:51:06.780Z,5.93
2023-06-25T01:53:33.493Z,5.85
2023-06-25T01:56:00.151Z,6.19
2023-06-25T01:58:26.751Z,6.27
2023-06-25T02:00:53.333Z,6.30
2023-06-25T02:03:20.102Z,6.41
2023-06-25T02:05:46.802Z,6.21
2023-06-25T02:08:13.415Z,6.29
2023-06-25T02:10:40.085Z,6.36
2023-06-25T02:13:06.732Z,6.50
2023-06-25T02:15:33.366Z,6.79
2023-06-25T02:17:59.998Z,6.88
2023-06-25T02:20:26.627Z,6.70
2023-06-25T02:22:53.276Z,6.77
2023-06-25T02:25:19.868Z,7.07
2023-06-25T02:27:46.444Z,6.49
2023-06-25T02:30:13.514Z,6.87
2023-06-25T02:32:40.221Z,6.65
2023-06-25T02:35:06.927Z,6.51
2023-06-25T02:37:33.513Z,6.90
2023-06-25T02:40:00.193Z,6.98
2023-06-25T02:42:26.814Z,6.87
2023-06-25T02:44:53.402Z,6.92
2023-06-25T02:47:20.034Z,6.91
2023-06-25T02:49:46.608Z,7.29
2023-06-25T02:52:13.212Z,6.91
2023-06-25T02:54:39.793Z,6.81
2023-06-25T02:57:06.377Z,6.83
2023-06-25T02:59:33.064Z,7.19
2023-06-25T03:01:59.690Z,6.22
2023-06-25T03:04:26.295Z,6.80
2023-06-25T03:06:53.009Z,7.10
2023-06-25T03:09:19.665Z,6.91
2023-06-25T03:11:46.425Z,6.61
2023-06-25T03:14:21.926Z,7.05
2023-06-25T03:16:59.662Z,7.15
2023-06-25T03:19:26.292Z,6.91
2023-06-25T03:21:52.921Z,6.60
2023-06-25T03:24:19.548Z,6.85
2023-06-25T03:26:46.198Z,6.97
2023-06-25T03:29:12.872Z,6.62
2023-06-25T03:31:39.518Z,7.00
2023-06-25T03:34:06.191Z,6.93
2023-06-25T03:36:32.940Z,7.20
2023-06-25T03:38:59.587Z,7.28
2023-06-25T03:41:26.169Z,7.10
2023-06-25T03:43:52.770Z,6.91
2023-06-25T03:46:19.368Z,6.69
2023-06-25T03:48:46.073Z,6.75
2023-06-25T03:51:12.865Z,7.01
2023-06-25T03:53:39.744Z,6.80
2023-06-25T03:56:06.409Z,6.63
2023-06-25T03:58:34.332Z,6.85
2023-06-25T04:01:01.308Z,7.02
2023-06-25T04:03:28.039Z,7.03
2023-06-25T04:05:54.692Z,6.96
2023-06-25T04:08:21.296Z,7.11
2023-06-25T04:10:48.005Z,6.94
2023-06-25T04:13:14.626Z,6.92
2023-06-25T04:15:41.352Z,6.91
2023-06-25T04:18:07.981Z,7.10
2023-06-25T04:20:34.612Z,6.89
2023-06-25T04:23:01.279Z,6.92
2023-06-25T04:25:27.908Z,6.87
2023-06-25T04:27:55.240Z,7.31
2023-06-25T04:30:21.875Z,7.37
2023-06-25T04:32:48.506Z,7.18
2023-06-25T04:35:15.182Z,7.24
2023-06-25T04:37:41.811Z,7.25
2023-06-25T04:40:08.947Z,6.98
2023-06-25T04:42:35.776Z,7.28
2023-06-25T04:45:02.400Z,7.35
2023-06-25T04:47:29.143Z,7.27
2023-06-25T04:49:55.760Z,7.08
2023-06-25T04:52:22.366Z,7.03
2023-06-25T04:54:48.973Z,6.91
2023-06-25T04:57:15.899Z,7.37
2023-06-25T04:59:42.489Z,7.33
2023-06-25T05:02:09.124Z,7.31
2023-06-25T05:04:35.779Z,6.61
2023-06-25T05:07:02.605Z,7.01
2023-06-25T05:09:29.375Z,6.89
2023-06-25T05:11:56.083Z,6.94
2023-06-25T05:14:22.740Z,7.07
2023-06-25T05:16:49.476Z,6.90
2023-06-25T05:19:16.236Z,6.98
2023-06-25T05:21:42.920Z,7.46
2023-06-25T05:24:09.523Z,7.00
2023-06-25T05:26:36.189Z,7.14
2023-06-25T05:29:02.840Z,7.02
2023-06-25T05:31:29.780Z,7.23
2023-06-25T05:33:56.427Z,6.89
2023-06-25T05:36:23.069Z,7.01
2023-06-25T05:38:51.570Z,7.04
2023-06-25T05:41:18.425Z,6.97
2023-06-25T05:43:45.023Z,7.36
2023-06-25T05:46:11.629Z,7.08
2023-06-25T05:48:39.084Z,7.21
2023-06-25T05:51:05.745Z,6.98
2023-06-25T05:53:38.953Z,7.03
2023-06-25T05:56:05.930Z,7.18
2023-06-25T05:58:33.281Z,6.80
2023-06-25T06:00:59.928Z,7.03
2023-06-25T06:03:26.586Z,7.21
2023-06-25T06:05:54.919Z,7.04
2023-06-25T06:08:21.589Z,7.48
2023-06-25T06:10:48.229Z,7.45
2023-06-25T06:13:14.893Z,7.40
2023-06-25T06:15:41.681Z,7.83
2023-06-25T06:18:09.209Z,7.67
2023-06-25T06:20:35.866Z,7.80
2023-06-25T06:23:02.507Z,7.40
2023-06-25T06:25:29.163Z,7.11
2023-06-25T06:27:55.894Z,7.34
2023-06-25T06:30:22.790Z,7.49
2023-06-25T06:32:49.558Z,7.54
2023-06-25T06:35:16.228Z,7.30
2023-06-25T06:37:42.912Z,7.89
2023-06-25T06:40:09.600Z,8.91
2023-06-25T06:42:36.202Z,7.91
2023-06-25T06:45:03.158Z,8.18
2023-06-25T06:47:29.860Z,7.79
2023-06-25T06:49:56.482Z,7.32
2023-06-25T06:52:25.082Z,8.04
2023-06-25T06:54:51.721Z,8.43
2023-06-25T06:57:18.438Z,8.67
2023-06-25T06:59:47.863Z,7.78
2023-06-25T07:02:14.588Z,7.93
2023-06-25T07:04:41.255Z,8.38
2023-06-25T07:07:07.949Z,9.17
2023-06-25T07:09:34.617Z,8.50
2023-06-25T07:12:01.230Z,8.64
2023-06-25T07:14:27.865Z,8.91
2023-06-25T07:16:54.583Z,8.03
2023-06-25T07:19:21.231Z,7.88
2023-06-25T07:21:47.817Z,8.30
2023-06-25T07:24:14.457Z,8.73
2023-06-25T07:26:41.103Z,8.43
2023-06-25T07:29:07.715Z,9.80
2023-06-25T07:31:34.306Z,8.96
2023-06-25T07:34:00.988Z,9.11
2023-06-25T07:36:27.587Z,9.32
2023-06-25T07:38:57.726Z,9.13
2023-06-25T07:41:24.356Z,8.32
2023-06-25T07:43:51.028Z,8.57
2023-06-25T07:46:17.868Z,8.75
2023-06-25T07:48:44.512Z,8.52
2023-06-25T07:51:11.128Z,8.07
2023-06-25T07:53:37.760Z,8.58
2023-06-25T07:56:05.135Z,8.58
2023-06-25T07:58:32.067Z,8.20
2023-06-25T08:00:58.722Z,7.87
2023-06-25T08:03:25.558Z,8.30
2023-06-25T08:05:52.429Z,8.18
2023-06-25T08:08:19.098Z,8.04
2023-06-25T08:10:45.776Z,8.27
2023-06-25T08:13:12.393Z,8.53
2023-06-25T08:15:39.552Z,8.41
2023-06-25T08:18:06.443Z,8.55
2023-06-25T08:20:33.087Z,8.10
2023-06-25T08:23:00.905Z,8.10
2023-06-25T08:25:28.081Z,8.19
2023-06-25T08:27:54.689Z,8.08
2023-06-25T08:30:21.459Z,8.50
2023-06-25T08:32:48.279Z,8.37
2023-06-25T08:35:15.183Z,8.81
2023-06-25T08:37:42.192Z,8.74
2023-06-25T08:40:11.577Z,8.35
2023-06-25T08:42:38.219Z,8.35
2023-06-25T08:45:05.078Z,8.27
2023-06-25T08:47:34.324Z,8.52
2023-06-25T08:50:01.021Z,8.07
2023-06-25T08:52:27.693Z,8.45
2023-06-25T08:54:54.548Z,8.28
2023-06-25T08:57:21.291Z,8.17
2023-06-25T08:59:47.919Z,8.21
2023-06-25T09:02:14.605Z,8.63
2023-06-25T09:04:41.342Z,8.25
2023-06-25T09:07:08.891Z,8.08
2023-06-25T09:09:35.662Z,8.45
2023-06-25T09:12:02.260Z,8.73
2023-06-25T09:14:30.585Z,9.09
2023-06-25T09:16:57.255Z,9.15
2023-06-25T09:19:23.954Z,8.65
2023-06-25T09:21:50.673Z,9.92
2023-06-25T09:24:18.396Z,9.36
2023-06-25T09:26:52.080Z,9.78
2023-06-25T09:29:20.802Z,8.66
2023-06-25T09:31:47.989Z,9.14
2023-06-25T09:34:16.618Z,9.18
2023-06-25T09:36:43.692Z,8.76
2023-06-25T09:39:11.538Z,8.66
2023-06-25T09:41:39.078Z,8.38
2023-06-25T09:44:06.349Z,9.30
2023-06-25T09:46:38.771Z,8.67
2023-06-25T09:49:05.607Z,8.32
2023-06-25T09:51:35.688Z,8.44
2023-06-25T09:54:02.779Z,8.47
2023-06-25T09:56:29.430Z,8.64
2023-06-25T09:58:56.019Z,8.19
2023-06-25T10:01:22.766Z,8.02
2023-06-25T10:03:49.713Z,8.41
2023-06-25T10:06:16.460Z,7.82
2023-06-25T10:08:43.096Z,7.92
2023-06-25T10:11:09.726Z,7.87
2023-06-25T10:13:40.815Z,8.03
2023-06-25T10:16:07.514Z,7.71
2023-06-25T10:18:42.302Z,7.39
2023-06-25T10:21:08.974Z,7.34
2023-06-25T10:23:37.189Z,7.16
2023-06-25T10:26:03.927Z,8.13
2023-06-25T10:28:34.946Z,7.82
2023-06-25T10:31:12.524Z,7.61
2023-06-25T10:33:39.243Z,7.32
2023-06-25T10:36:07.363Z,7.53
2023-06-25T10:38:34.005Z,7.03
2023-06-25T10:41:00.713Z,7.47
2023-06-25T10:43:27.411Z,7.48
2023-06-25T10:45:55.119Z,6.81
2023-06-25T10:48:22.011Z,7.31
2023-06-25T10:50:48.888Z,7.38
2023-06-25T10:53:16.784Z,6.88
2023-06-25T10:55:50.574Z,7.16
2023-06-25T10:58:18.417Z,6.60
2023-06-25T11:00:45.409Z,6.70
2023-06-25T11:03:12.243Z,6.42
2023-06-25T11:05:40.513Z,6.46
2023-06-25T11:08:07.094Z,6.42
2023-06-25T11:10:33.895Z,7.60
2023-06-25T11:13:00.658Z,7.85
2023-06-25T11:15:31.706Z,7.76
2023-06-25T11:17:58.392Z,6.64
2023-06-25T11:20:28.745Z,6.59
2023-06-25T11:22:58.375Z,6.90
2023-06-25T11:25:24.996Z,6.41
2023-06-25T11:28:10.575Z,6.45
2023-06-25T11:30:37.331Z,6.73
2023-06-25T11:33:17.388Z,6.54
2023-06-25T11:35:44.109Z,6.76
2023-06-25T11:38:10.787Z,6.85
2023-06-25T11:40:38.381Z,6.25
2023-06-25T11:43:05.035Z,6.80
2023-06-25T11:45:49.564Z,6.54
2023-06-25T11:48:17.197Z,6.73
2023-06-25T11:50:44.513Z,6.63
2023-06-25T11:53:11.309Z,6.62
2023-06-25T11:55:39.048Z,6.61
2023-06-25T11:58:05.869Z,6.76
2023-06-25T12:00:32.543Z,6.85
2023-06-25T12:02:59.193Z,6.60
2023-06-25T12:05:25.884Z,6.64
2023-06-25T12:07:52.519Z,6.68
2023-06-25T12:10:19.180Z,6.68
2023-06-25T12:12:46.565Z,6.72
2023-06-25T12:15:13.249Z,6.91
2023-06-25T12:17:39.971Z,6.69
2023-06-25T12:20:06.970Z,6.90
2023-06-25T12:22:33.767Z,6.31
2023-06-25T12:25:00.660Z,6.60
2023-06-25T12:27:27.298Z,6.62
2023-06-25T12:29:53.972Z,6.80
2023-06-25T12:32:20.594Z,7.00
2023-06-25T12:34:47.383Z,6.59
2023-06-25T12:37:14.094Z,6.76
2023-06-25T12:39:40.762Z,6.51
2023-06-25T12:42:07.789Z,6.91
2023-06-25T12:44:34.413Z,6.71
2023-06-25T12:47:01.085Z,6.73
2023-06-25T12:49:27.755Z,6.89
2023-06-25T12:51:54.380Z,6.76
2023-06-25T12:54:21.038Z,6.58
2023-06-25T12:56:47.677Z,6.82
2023-06-25T12:59:14.732Z,7.11
2023-06-25T13:01:41.790Z,6.65
2023-06-25T13:04:08.473Z,6.97
2023-06-25T13:06:35.149Z,6.93
2023-06-25T13:09:01.843Z,6.89
2023-06-25T13:11:28.508Z,7.08
2023-06-25T13:13:55.200Z,6.77
2023-06-25T13:16:21.852Z,6.83
2023-06-25T13:18:48.453Z,7.16
2023-06-25T13:21:15.031Z,7.06
2023-06-25T13:23:41.669Z,6.53
2023-06-25T13:26:08.344Z,6.95
2023-06-25T13:28:34.963Z,6.73
2023-06-25T13:31:01.750Z,7.08
2023-06-25T13:33:30.119Z,7.20
2023-06-25T13:35:57.079Z,6.76
2023-06-25T13:38:23.657Z,6.82
2023-06-25T13:40:50.319Z,6.64
2023-06-25T13:43:16.925Z,6.50
2023-06-25T13:45:43.602Z,6.90
2023-06-25T13:48:10.283Z,6.86
2023-06-25T13:50:36.976Z,6.95
2023-06-25T13:53:03.725Z,7.20
2023-06-25T13:55:30.343Z,7.02
2023-06-25T13:57:56.959Z,6.87
2023-06-25T14:00:23.637Z,6.83
2023-06-25T14:03:02.456Z,6.97
2023-06-25T14:05:29.486Z,6.77
2023-06-25T14:07:56.058Z,6.49
2023-06-25T14:10:22.690Z,6.78
2023-06-25T14:12:49.385Z,6.65
2023-06-25T14:15:16.010Z,6.50
2023-06-25T14:17:42.660Z,6.28
2023-06-25T14:20:09.584Z,6.48
2023-06-25T14:22:36.383Z,6.70
2023-06-25T14:25:03.134Z,6.18
2023-06-25T14:27:29.764Z,6.62
2023-06-25T14:29:56.391Z,6.69
2023-06-25T14:32:23.000Z,6.48
2023-06-25T14:34:49.690Z,6.31
2023-06-25T14:37:17.070Z,6.28
2023-06-25T14:39:43.769Z,5.91
2023-06-25T14:42:10.472Z,6.46
2023-06-25T14:44:37.186Z,6.42
2023-06-25T14:47:03.940Z,6.17
2023-06-25T14:49:30.805Z,6.25
2023-06-25T14:51:57.447Z,6.14
2023-06-25T14:54:24.098Z,6.05
2023-06-25T14:56:52.320Z,6.09
2023-06-25T14:59:18.992Z,5.92
2023-06-25T15:01:45.860Z,6.07
2023-06-25T15:04:12.861Z,6.00
2023-06-25T15:06:39.649Z,6.21
2023-06-25T15:09:06.244Z,5.57
2023-06-25T15:11:33.197Z,5.84
2023-06-25T15:13:59.953Z,6.05
2023-06-25T15:16:27.161Z,5.87
2023-06-25T15:18:53.827Z,5.82
2023-06-25T15:21:20.772Z,6.00
2023-06-25T15:23:47.426Z,5.99
2023-06-25T15:26:14.248Z,6.15
2023-06-25T15:28:43.491Z,5.76
2023-06-25T15:31:10.196Z,5.77
2023-06-25T15:33:36.873Z,5.70
2023-06-25T15:36:03.520Z,5.86
2023-06-25T15:38:30.102Z,5.73
2023-06-25T15:40:56.675Z,5.57
2023-06-25T15:43:24.405Z,5.87
2023-06-25T15:45:51.061Z,5.56
2023-06-25T15:48:17.729Z,6.37
2023-06-25T15:50:44.379Z,5.68
2023-06-25T15:53:10.982Z,5.68
2023-06-25T15:55:37.624Z,5.50
2023-06-25T15:58:04.208Z,5.46
2023-06-25T16:00:30.822Z,5.40
2023-06-25T16:02:57.500Z,5.63
2023-06-25T16:05:24.285Z,5.60
2023-06-25T16:07:50.896Z,5.44
2023-06-25T16:10:17.526Z,5.70
2023-06-25T16:12:44.307Z,5.49
2023-06-25T16:15:10.944Z,5.51
2023-06-25T16:17:37.577Z,5.54
2023-06-25T16:20:11.740Z,5.46
2023-06-25T16:22:39.573Z,5.29
2023-06-25T16:25:06.527Z,5.58
2023-06-25T16:27:33.116Z,5.55
2023-06-25T16:29:59.803Z,5.53
2023-06-25T16:32:26.591Z,5.37
2023-06-25T16:34:53.255Z,5.50
2023-06-25T16:37:19.856Z,5.35
2023-06-25T16:39:46.434Z,5.15
2023-06-25T16:42:13.024Z,5.88
2023-06-25T16:44:39.696Z,5.96
2023-06-25T16:47:06.308Z,5.62
2023-06-25T16:49:35.147Z,5.56
2023-06-25T16:52:01.789Z,6.01
2023-06-25T16:54:28.503Z,5.96
2023-06-25T16:56:55.176Z,5.73
2023-06-25T16:59:21.893Z,6.13
2023-06-25T17:01:48.586Z,7.21
2023-06-25T17:04:15.187Z,6.57
2023-06-25T17:06:41.969Z,8.80
2023-06-25T17:09:08.580Z,7.04
2023-06-25T17:11:35.495Z,7.22
2023-06-25T17:14:02.129Z,7.55
2023-06-25T17:16:28.794Z,7.58
2023-06-25T17:18:55.398Z,6.86
2023-06-25T17:21:22.301Z,6.82
2023-06-25T17:23:48.889Z,6.47
2023-06-25T17:26:15.549Z,6.80
2023-06-25T17:28:42.204Z,7.09
2023-06-25T17:31:08.854Z,8.43
2023-06-25T17:33:35.547Z,7.11
2023-06-25T17:36:02.151Z,7.08
2023-06-25T17:38:28.818Z,7.37
2023-06-25T17:40:55.443Z,7.60
2023-06-25T17:43:22.023Z,7.17
2023-06-25T17:45:48.751Z,7.14
2023-06-25T17:48:15.448Z,7.03
2023-06-25T17:50:42.135Z,7.65
2023-06-25T17:53:08.804Z,7.97
2023-06-25T17:55:35.811Z,9.20
2023-06-25T17:58:03.119Z,11.08
2023-06-25T18:00:29.869Z,10.77
2023-06-25T18:02:56.605Z,7.97
2023-06-25T18:05:23.333Z,7.90
2023-06-25T18:07:50.098Z,7.54
2023-06-25T18:10:16.702Z,7.59
2023-06-25T18:12:43.290Z,7.72
2023-06-25T18:15:09.998Z,7.89
2023-06-25T18:17:36.659Z,7.70
2023-06-25T18:20:03.328Z,8.19
2023-06-25T18:22:29.994Z,8.19
2023-06-25T18:24:56.600Z,8.40
2023-06-25T18:27:23.227Z,8.49
2023-06-25T18:29:49.910Z,8.82
2023-06-25T18:32:16.560Z,8.37
2023-06-25T18:34:43.349Z,7.54
2023-06-25T18:37:09.955Z,8.11
2023-06-25T18:39:36.677Z,8.31
2023-06-25T18:42:03.435Z,7.57
2023-06-25T18:44:30.040Z,8.04
2023-06-25T18:46:56.735Z,8.08
2023-06-25T18:49:23.533Z,7.67
2023-06-25T18:51:50.306Z,7.58
2023-06-25T18:54:16.953Z,7.86
2023-06-25T18:56:43.651Z,7.63
2023-06-25T18:59:10.365Z,7.79
2023-06-25T19:01:37.017Z,7.89
2023-06-25T19:04:03.829Z,7.70
2023-06-25T19:06:30.643Z,7.78
2023-06-25T19:08:57.295Z,8.07
2023-06-25T19:11:23.956Z,7.59
2023-06-25T19:13:50.607Z,7.96
2023-06-25T19:16:17.303Z,8.31
2023-06-25T19:18:43.976Z,15.11
2023-06-25T19:21:10.607Z,16.62
2023-06-25T19:23:39.243Z,10.84
2023-06-25T19:26:06.667Z,9.66
2023-06-25T19:28:33.327Z,9.45
2023-06-25T19:31:00.109Z,8.21
2023-06-25T19:33:26.771Z,8.78
2023-06-25T19:35:53.418Z,8.64
2023-06-25T19:38:20.033Z,8.60
2023-06-25T19:40:46.765Z,8.26
2023-06-25T19:43:14.245Z,8.40
2023-06-25T19:45:40.902Z,9.16
2023-06-25T19:48:07.678Z,9.46
2023-06-25T19:50:34.432Z,9.58
2023-06-25T19:53:01.075Z,10.03
2023-06-25T19:55:27.756Z,9.95
2023-06-25T19:57:54.398Z,10.11
2023-06-25T20:00:21.041Z,10.11
2023-06-25T20:02:47.730Z,10.36
2023-06-25T20:05:14.704Z,9.73
2023-06-25T20:07:41.531Z,9.84
2023-06-25T20:10:08.423Z,9.79
2023-06-25T20:12:35.122Z,9.96
2023-06-25T20:15:01.732Z,9.14
2023-06-25T20:17:28.549Z,9.42
2023-06-25T20:19:55.242Z,9.68
2023-06-25T20:22:21.883Z,9.61
2023-06-25T20:24:48.526Z,10.04
2023-06-25T20:27:15.112Z,9.97
2023-06-25T20:29:41.777Z,9.99
2023-06-25T20:32:08.448Z,12.08
2023-06-25T20:34:35.210Z,12.09
2023-06-25T20:37:02.023Z,11.41
2023-06-25T20:39:28.702Z,11.52
2023-06-25T20:41:55.409Z,11.37
2023-06-25T20:44:22.032Z,11.08
2023-06-25T20:46:48.645Z,10.70
2023-06-25T20:49:15.293Z,9.89
2023-06-25T20:51:41.936Z,10.32
2023-06-25T20:54:08.566Z,10.19
2023-06-25T20:56:35.206Z,10.29
2023-06-25T20:59:01.870Z,9.92
2023-06-25T21:01:28.573Z,14.27
2023-06-25T21:03:58.499Z,15.02
2023-06-25T21:06:25.153Z,22.14
2023-06-25T21:08:51.843Z,21.17
2023-06-25T21:11:18.436Z,13.03
2023-06-25T21:13:45.072Z,13.60
2023-06-25T21:16:11.905Z,13.11
2023-06-25T21:18:38.495Z,9.37
2023-06-25T21:21:05.176Z,10.07
2023-06-25T21:23:31.807Z,9.24
2023-06-25T21:25:58.441Z,10.09
2023-06-25T21:28:25.048Z,9.88
2023-06-25T21:30:51.704Z,9.57
2023-06-25T21:33:18.325Z,9.68
2023-06-25T21:35:44.972Z,9.31
2023-06-25T21:38:11.628Z,8.99
2023-06-25T21:40:38.710Z,9.03
2023-06-25T21:43:05.618Z,8.75
2023-06-25T21:45:32.327Z,8.70
2023-06-25T21:47:59.016Z,9.30
2023-06-25T21:50:25.669Z,9.06
2023-06-25T21:52:52.293Z,9.22
2023-06-25T21:55:18.921Z,8.75
2023-06-25T21:57:45.687Z,8.75
2023-06-25T22:00:12.615Z,8.56
2023-06-25T22:02:39.579Z,8.58
2023-06-25T22:05:06.934Z,8.50
2023-06-25T22:07:33.584Z,8.89
2023-06-25T22:10:00.273Z,8.35
2023-06-25T22:12:26.854Z,8.26
2023-06-25T22:14:53.515Z,8.93
2023-06-25T22:17:20.455Z,8.69
2023-06-25T22:19:47.469Z,8.98
2023-06-25T22:22:14.123Z,9.40
2023-06-25T22:24:40.799Z,12.35
2023-06-25T22:27:07.415Z,13.04
2023-06-25T22:29:41.954Z,14.17
2023-06-25T22:32:10.022Z,13.14
2023-06-25T22:34:36.855Z,12.36
2023-06-25T22:37:03.563Z,13.89
2023-06-25T22:39:30.153Z,14.12
2023-06-25T22:41:56.779Z,11.94
2023-06-25T22:44:23.373Z,12.25
2023-06-25T22:46:49.961Z,10.75
2023-06-25T22:49:16.646Z,11.12
2023-06-25T22:51:43.286Z,10.61
2023-06-25T22:54:09.909Z,10.84
2023-06-25T22:56:36.557Z,11.41
2023-06-25T22:59:03.703Z,10.59
2023-06-25T23:01:30.381Z,11.73
2023-06-25T23:03:57.154Z,9.95
2023-06-25T23:06:24.797Z,10.15
2023-06-25T23:08:51.439Z,9.91
2023-06-25T23:11:18.084Z,9.46
2023-06-25T23:13:44.729Z,9.69
2023-06-25T23:16:11.347Z,10.03
2023-06-25T23:18:38.481Z,9.74
2023-06-25T23:21:05.601Z,9.76
2023-06-25T23:23:32.624Z,9.20
2023-06-25T23:25:59.777Z,9.18
2023-06-25T23:28:27.305Z,9.69
2023-06-25T23:30:53.977Z,9.21
2023-06-25T23:33:20.684Z,9.08
2023-06-25T23:35:47.403Z,9.18
2023-06-25T23:38:14.094Z,9.14
2023-06-25T23:40:40.914Z,9.11
2023-06-25T23:43:07.634Z,8.80
2023-06-25T23:45:34.260Z,9.11
2023-06-25T23:48:01.052Z,9.37
2023-06-25T23:50:27.775Z,9.00
2023-06-25T23:52:54.472Z,9.01
2023-06-25T23:55:21.169Z,9.00
2023-06-25T23:57:47.773Z,9.14
